Aviation Digital Data Service (ADDS)

Output produced by METARs form (1047 UTC 19 January 2019)
found at http://www.aviationweather.gov/metar/data/
 
WBGB 191000Z 35005KT 300V030 9999 FEW015CB SCT016 BKN150 28/26 Q1006
TAF WBGB 190500Z 1906/2006 VRB03KT 9999 SCT016 
     TEMPO 1907/1911 35010KT 4000 TSRA SCT014 FEW015CB
       
WMKB 191000Z 28007KT 210V340 9999 FEW020 BKN280 32/25 Q1007 NOSIG
TAF WMKB 190500Z 1906/2006 30010KT 9999 FEW020 
     BECMG 1912/1914 03005KT FEW025
       
WMKE 191000Z 03007KT 340V070 9999 SCT013 SCT140 BKN250 28/25 Q1009
TAF WMKE 190500Z 1906/2006 03007KT 9999 FEW014 SCT140 BKN260
       
TAF WMAP 190500Z 1906/2006 36008KT 9999 FEW018 
     BECMG 1910/1912 01005KT FEW024 
     BECMG 1917/1919 9000 FEW008 
     BECMG 1923/2001 9999 FEW018
       
WBKK 191030Z VRB04KT 9999 FEW014 BKN280 29/24 Q1006 NOSIG
TAF WBKK 190500Z 1906/2006 33007KT 9999 FEW015
       
WMKK 191030Z 23003KT 160V280 9999 FEW020 SCT140 BKN280 30/23 Q1007 NOSIG
TAF WMKK 190500Z 1906/2012 06008KT 9999 FEW018 
     BECMG 1909/1911 VRB03KT FEW017CB SCT030 
     BECMG 1915/1917 06007KT 
     BECMG 1922/2000 FEW018
       
WMKD 191000Z 32004KT 280V340 6000 -SHRA FEW000 FEW017CB SCT018 BKN280 26/25 Q1008 NOSIG
WBGG 191030Z 30005KT 250V340 9999 -TSRA FEW015CB SCT020 BKN150 24/23 Q1008 NOSIG
TAF WBGG 190500Z 1906/2006 VRB03KT 8000 -TSRA FEW015CB SCT020 
     TEMPO 1908/1916 4000 TSRA FEW015CB SCT018
       
WBKL 191000Z 01009KT 330V060 9999 FEW015 BKN290 28/25 Q1007
TAF WBKL 190500Z 1906/2006 01010KT 9999 FEW015
       
WMKL 191000Z 03010KT 340V070 9999 FEW022 BKN280 32/19 Q1007
TAF WMKL 190500Z 1906/2006 08010KT 9999 FEW022 SCT140 BKN270 
     TEMPO 1907/1909 7000 -RA FEW017CB
       
WMKM 191000Z 08008KT 040V130 9999 FEW017CB SCT140 BKN270 30/24 Q1007
TAF WMKM 190500Z 1906/2006 04008KT 9999 FEW020 
     BECMG 1910/1912 FEW028 
     BECMG 1922/2000 FEW018
       
WBGR 191000Z 03008KT 350V070 9999 SCT016 SCT150 BKN300 28/24 Q1006
TAF WBGR 190500Z 1906/2006 03006KT 9999 SCT016 
     TEMPO 1908/1912 4000 TSRA SCT014 FEW015CB
       
WMKP 191030Z 23008KT 200V270 9999 FEW020 BKN280 31/23 Q1007 NOSIG
TAF WMKP 190500Z 1906/2006 22005KT 9000 FEW020 BKN280 
     BECMG 1910/1912 03005KT FEW025
       
TAF WMBT 190500Z 1906/2006 01007KT 9999 FEW020
       
WBKS 191000Z 06009KT 020V100 9999 SCT015 BKN290 28/24 Q1009
TAF WBKS 190500Z 1906/2006 05012KT 9999 SCT016
       
WBGS 191000Z 03004KT 350V060 9999 -TSRA FEW015CB SCT016 BKN150 24/24 Q1008
TAF WBGS 190500Z 1906/2006 VRB03KT 9999 SCT018 
     TEMPO 1907/1912 4000 TSRA FEW015CB
       
WMSA 191000Z 24003KT 170V300 9999 FEW020 SCT140 BKN270 30/24 Q1007
TAF WMSA 190500Z 1906/2006 22005KT 9999 FEW017CB 
     TEMPO 1911/1915 4000 TSRA FEW010 FEW016CB SCT024 
     BECMG 1914/1916 VRB03KT 8000 FEW008 FEW017CB SCT025 
     BECMG 1923/2001 06005KT FEW020
       
WMKA 191000Z 06008KT 320V110 9999 FEW020 BKN300 32/23 Q1007
TAF WMKA 190500Z 1906/2006 07005KT 9999 FEW020 BKN300 
     TEMPO 1908/1912 7000 -RA FEW017CB
       
WMKI 191000Z 24008KT 200V260 9999 FEW020 SCT140 BKN280 30/24 Q1007
TAF WMKI 190500Z 1906/2006 23010KT 9999 FEW020 
     BECMG 1913/1915 VRB03KT FEW030
       
WMKJ 191000Z 03009KT 340V060 9999 FEW018 BKN280 30/25 Q1007
TAF WMKJ 190500Z 1906/2006 02008KT 9999 FEW018 
     BECMG 1909/1911 34005KT FEW022 
     BECMG 1918/1920 9000 FEW010 
     BECMG 1923/2001 02008KT 9999 FEW018
       
WMKC 191000Z 07012KT 040V100 9999 FEW018 BKN280 28/24 Q1009
TAF WMKC 190500Z 1906/2006 08010KT 9999 FEW018 SCT140 BKN280
       
WMKN 191000Z 05009KT 010V100 9999 SCT018 BKN300 29/24 Q1009
TAF WMKN 190500Z 1906/2006 06010KT 9999 FEW020 SCT150 BKN300
       
WBKW 191000Z 02003KT 330V060 9999 FEW017 BKN300 28/24 Q1007
TAF WBKW 190500Z 1906/2006 05007KT 9999 FEW017